sensor_id;sensor_type;location;lat;lon;timestamp;pressure;altitude;pressure_sealevel;temperature;humidity
46448;BME280;32145;50.390;30.778;2023-05-25T00:01:52;100027.19;;;14.95;68.22
46448;BME280;32145;50.390;30.778;2023-05-25T00:04:48;100024.41;;;14.90;68.39
46448;BME280;32145;50.390;30.778;2023-05-25T00:07:45;100019.44;;;14.87;68.48
46448;BME280;32145;50.390;30.778;2023-05-25T00:10:43;100026.00;;;14.86;68.92
46448;BME280;32145;50.390;30.778;2023-05-25T00:13:40;100029.22;;;14.82;68.66
46448;BME280;32145;50.390;30.778;2023-05-25T00:16:36;100028.19;;;14.84;68.63
46448;BME280;32145;50.390;30.778;2023-05-25T00:19:32;100022.13;;;14.81;68.67
46448;BME280;32145;50.390;30.778;2023-05-25T00:22:30;100016.38;;;14.78;69.02
46448;BME280;32145;50.390;30.778;2023-05-25T00:25:24;100016.88;;;14.75;68.77
46448;BME280;32145;50.390;30.778;2023-05-25T00:28:20;100024.22;;;14.74;68.93
46448;BME280;32145;50.390;30.778;2023-05-25T00:31:14;100020.34;;;14.70;68.95
46448;BME280;32145;50.390;30.778;2023-05-25T00:34:09;100021.69;;;14.67;68.62
46448;BME280;32145;50.390;30.778;2023-05-25T00:37:03;100019.47;;;14.64;68.98
46448;BME280;32145;50.390;30.778;2023-05-25T00:39:57;100019.19;;;14.61;69.30
46448;BME280;32145;50.390;30.778;2023-05-25T00:42:52;100018.88;;;14.57;69.12
46448;BME280;32145;50.390;30.778;2023-05-25T00:45:50;100018.56;;;14.53;69.17
46448;BME280;32145;50.390;30.778;2023-05-25T00:48:46;100018.50;;;14.48;69.07
46448;BME280;32145;50.390;30.778;2023-05-25T00:51:43;100016.88;;;14.47;69.44
46448;BME280;32145;50.390;30.778;2023-05-25T00:54:33;100024.47;;;14.45;69.10
46448;BME280;32145;50.390;30.778;2023-05-25T00:57:28;100019.53;;;14.42;69.54
46448;BME280;32145;50.390;30.778;2023-05-25T01:00:24;100010.16;;;14.33;69.30
46448;BME280;32145;50.390;30.778;2023-05-25T01:03:21;100017.19;;;14.28;69.11
46448;BME280;32145;50.390;30.778;2023-05-25T01:06:17;100025.38;;;14.28;69.38
46448;BME280;32145;50.390;30.778;2023-05-25T01:09:12;100025.94;;;14.30;69.38
46448;BME280;32145;50.390;30.778;2023-05-25T01:12:09;100033.06;;;14.32;69.39
46448;BME280;32145;50.390;30.778;2023-05-25T01:15:05;100025.38;;;14.28;69.27
46448;BME280;32145;50.390;30.778;2023-05-25T01:17:59;100020.44;;;14.25;69.45
46448;BME280;32145;50.390;30.778;2023-05-25T01:20:58;100024.50;;;14.23;69.62
46448;BME280;32145;50.390;30.778;2023-05-25T01:24:02;100018.66;;;14.14;69.99
46448;BME280;32145;50.390;30.778;2023-05-25T01:27:03;100021.63;;;14.12;70.07
46448;BME280;32145;50.390;30.778;2023-05-25T01:30:04;100021.34;;;14.09;70.37
46448;BME280;32145;50.390;30.778;2023-05-25T01:33:03;100027.53;;;14.04;70.38
46448;BME280;32145;50.390;30.778;2023-05-25T01:36:02;100025.13;;;14.08;70.53
46448;BME280;32145;50.390;30.778;2023-05-25T01:38:59;100025.13;;;14.08;70.59
46448;BME280;32145;50.390;30.778;2023-05-25T01:41:53;100018.28;;;14.05;70.62
46448;BME280;32145;50.390;30.778;2023-05-25T01:44:49;100019.34;;;14.04;70.56
46448;BME280;32145;50.390;30.778;2023-05-25T01:47:54;100017.13;;;14.01;70.99
46448;BME280;32145;50.390;30.778;2023-05-25T01:50:57;100015.75;;;13.98;70.71
46448;BME280;32145;50.390;30.778;2023-05-25T01:53:59;100012.75;;;14.00;70.53
46448;BME280;32145;50.390;30.778;2023-05-25T01:56:57;100014.94;;;13.98;70.44
46448;BME280;32145;50.390;30.778;2023-05-25T01:59:53;100026.59;;;13.93;70.34
46448;BME280;32145;50.390;30.778;2023-05-25T02:02:49;100028.22;;;13.94;70.34
46448;BME280;32145;50.390;30.778;2023-05-25T02:05:44;100036.91;;;13.91;70.63
46448;BME280;32145;50.390;30.778;2023-05-25T02:08:39;100034.09;;;13.86;70.33
46448;BME280;32145;50.390;30.778;2023-05-25T02:11:35;100036.59;;;13.87;70.50
46448;BME280;32145;50.390;30.778;2023-05-25T02:14:31;100040.72;;;13.90;70.32
46448;BME280;32145;50.390;30.778;2023-05-25T02:17:27;100051.59;;;13.90;70.40
46448;BME280;32145;50.390;30.778;2023-05-25T02:20:24;100050.81;;;13.89;70.38
46448;BME280;32145;50.390;30.778;2023-05-25T02:23:14;100052.19;;;13.92;70.58
46448;BME280;32145;50.390;30.778;2023-05-25T02:26:09;100052.69;;;13.89;70.21
46448;BME280;32145;50.390;30.778;2023-05-25T02:29:05;100048.31;;;13.88;70.18
46448;BME280;32145;50.390;30.778;2023-05-25T02:31:59;100053.25;;;13.91;70.16
46448;BME280;32145;50.390;30.778;2023-05-25T02:34:53;100053.00;;;13.92;70.41
46448;BME280;32145;50.390;30.778;2023-05-25T02:37:47;100056.06;;;13.96;70.52
46448;BME280;32145;50.390;30.778;2023-05-25T02:40:42;100050.13;;;13.99;70.74
46448;BME280;32145;50.390;30.778;2023-05-25T02:43:36;100040.97;;;14.11;70.77
46448;BME280;32145;50.390;30.778;2023-05-25T02:46:32;100045.41;;;14.17;70.38
46448;BME280;32145;50.390;30.778;2023-05-25T02:49:26;100041.69;;;14.23;70.32
46448;BME280;32145;50.390;30.778;2023-05-25T02:52:20;100043.09;;;14.26;70.17
46448;BME280;32145;50.390;30.778;2023-05-25T02:55:14;100041.25;;;14.32;70.11
46448;BME280;32145;50.390;30.778;2023-05-25T02:58:09;100047.63;;;14.42;70.04
46448;BME280;32145;50.390;30.778;2023-05-25T03:01:03;100052.88;;;14.49;69.86
46448;BME280;32145;50.390;30.778;2023-05-25T03:03:59;100049.91;;;14.51;69.67
46448;BME280;32145;50.390;30.778;2023-05-25T03:06:47;100048.78;;;14.47;69.83
46448;BME280;32145;50.390;30.778;2023-05-25T03:09:44;100050.16;;;14.49;70.07
46448;BME280;32145;50.390;30.778;2023-05-25T03:12:40;100057.38;;;14.61;69.87
46448;BME280;32145;50.390;30.778;2023-05-25T03:15:36;100064.16;;;14.80;70.37
46448;BME280;32145;50.390;30.778;2023-05-25T03:18:31;100061.84;;;14.94;69.91
46448;BME280;32145;50.390;30.778;2023-05-25T03:21:26;100066.88;;;15.41;70.01
46448;BME280;32145;50.390;30.778;2023-05-25T03:24:20;100066.63;;;15.85;68.82
46448;BME280;32145;50.390;30.778;2023-05-25T03:27:15;100065.09;;;16.00;68.88
46448;BME280;32145;50.390;30.778;2023-05-25T03:30:12;100070.41;;;16.22;68.92
46448;BME280;32145;50.390;30.778;2023-05-25T03:33:08;100067.59;;;16.86;67.99
46448;BME280;32145;50.390;30.778;2023-05-25T03:36:06;100078.84;;;17.63;66.00
46448;BME280;32145;50.390;30.778;2023-05-25T03:39:04;100062.75;;;18.43;63.77
46448;BME280;32145;50.390;30.778;2023-05-25T03:42:00;100057.97;;;19.10;62.11
46448;BME280;32145;50.390;30.778;2023-05-25T03:44:56;100068.81;;;19.60;60.87
46448;BME280;32145;50.390;30.778;2023-05-25T03:47:51;100066.34;;;19.88;59.21
46448;BME280;32145;50.390;30.778;2023-05-25T03:50:45;100053.59;;;20.22;58.52
46448;BME280;32145;50.390;30.778;2023-05-25T03:53:41;100060.09;;;20.51;57.82
46448;BME280;32145;50.390;30.778;2023-05-25T03:56:39;100066.88;;;20.58;57.23
46448;BME280;32145;50.390;30.778;2023-05-25T03:59:33;100064.56;;;20.46;57.14
46448;BME280;32145;50.390;30.778;2023-05-25T04:02:28;100060.47;;;20.19;57.20
46448;BME280;32145;50.390;30.778;2023-05-25T04:05:22;100060.44;;;19.76;57.69
46448;BME280;32145;50.390;30.778;2023-05-25T04:08:16;100063.84;;;19.32;58.50
46448;BME280;32145;50.390;30.778;2023-05-25T04:11:11;100069.25;;;19.03;58.98
46448;BME280;32145;50.390;30.778;2023-05-25T04:14:06;100069.41;;;18.82;59.46
46448;BME280;32145;50.390;30.778;2023-05-25T04:17:03;100071.72;;;18.64;59.93
46448;BME280;32145;50.390;30.778;2023-05-25T04:19:59;100083.25;;;18.56;60.51
46448;BME280;32145;50.390;30.778;2023-05-25T04:22:55;100078.91;;;18.50;61.19
46448;BME280;32145;50.390;30.778;2023-05-25T04:25:52;100081.63;;;18.55;61.32
46448;BME280;32145;50.390;30.778;2023-05-25T04:28:48;100083.22;;;18.66;61.12
46448;BME280;32145;50.390;30.778;2023-05-25T04:31:43;100075.13;;;18.86;60.38
46448;BME280;32145;50.390;30.778;2023-05-25T04:34:38;100081.34;;;19.07;59.48
46448;BME280;32145;50.390;30.778;2023-05-25T04:37:32;100080.72;;;19.21;58.82
46448;BME280;32145;50.390;30.778;2023-05-25T04:40:16;100081.19;;;19.28;58.56
46448;BME280;32145;50.390;30.778;2023-05-25T04:43:06;100076.66;;;19.42;58.28
46448;BME280;32145;50.390;30.778;2023-05-25T04:46:00;100076.59;;;19.53;57.07
46448;BME280;32145;50.390;30.778;2023-05-25T04:48:46;100076.00;;;19.56;57.20
46448;BME280;32145;50.390;30.778;2023-05-25T04:51:42;100073.44;;;19.65;57.06
46448;BME280;32145;50.390;30.778;2023-05-25T04:54:26;100070.34;;;19.71;56.77
46448;BME280;32145;50.390;30.778;2023-05-25T04:57:20;100071.09;;;19.77;56.46
46448;BME280;32145;50.390;30.778;2023-05-25T05:00:05;100077.34;;;19.88;56.51
46448;BME280;32145;50.390;30.778;2023-05-25T05:02:50;100065.94;;;20.00;56.31
46448;BME280;32145;50.390;30.778;2023-05-25T05:05:45;100076.56;;;20.12;55.97
46448;BME280;32145;50.390;30.778;2023-05-25T05:08:29;100072.41;;;20.15;55.87
46448;BME280;32145;50.390;30.778;2023-05-25T05:11:13;100073.75;;;20.17;55.35
46448;BME280;32145;50.390;30.778;2023-05-25T05:13:57;100074.78;;;20.21;55.36
46448;BME280;32145;50.390;30.778;2023-05-25T05:16:52;100072.22;;;20.30;55.13
46448;BME280;32145;50.390;30.778;2023-05-25T05:19:36;100070.22;;;20.36;54.70
46448;BME280;32145;50.390;30.778;2023-05-25T05:22:32;100066.81;;;20.44;54.77
46448;BME280;32145;50.390;30.778;2023-05-25T05:25:16;100070.78;;;20.57;54.51
46448;BME280;32145;50.390;30.778;2023-05-25T05:28:12;100074.47;;;20.67;54.11
46448;BME280;32145;50.390;30.778;2023-05-25T05:30:56;100072.47;;;20.72;53.74
46448;BME280;32145;50.390;30.778;2023-05-25T05:33:40;100072.94;;;20.80;53.55
46448;BME280;32145;50.390;30.778;2023-05-25T05:36:24;100074.44;;;20.91;53.47
46448;BME280;32145;50.390;30.778;2023-05-25T05:39:20;100075.91;;;21.03;52.71
46448;BME280;32145;50.390;30.778;2023-05-25T05:42:04;100081.28;;;21.13;52.39
46448;BME280;32145;50.390;30.778;2023-05-25T05:44:49;100078.84;;;21.25;52.02
46448;BME280;32145;50.390;30.778;2023-05-25T05:47:32;100085.38;;;21.49;51.91
46448;BME280;32145;50.390;30.778;2023-05-25T05:50:29;100093.13;;;21.80;51.33
46448;BME280;32145;50.390;30.778;2023-05-25T05:53:13;100090.28;;;21.99;50.66
46448;BME280;32145;50.390;30.778;2023-05-25T05:55:58;100091.22;;;22.09;50.46
46448;BME280;32145;50.390;30.778;2023-05-25T05:58:54;100090.50;;;22.17;49.98
46448;BME280;32145;50.390;30.778;2023-05-25T06:01:51;100087.84;;;22.26;49.79
46448;BME280;32145;50.390;30.778;2023-05-25T06:04:47;100103.78;;;22.43;49.18
46448;BME280;32145;50.390;30.778;2023-05-25T06:07:31;100095.81;;;22.56;48.75
46448;BME280;32145;50.390;30.778;2023-05-25T06:10:25;100084.84;;;22.64;48.46
46448;BME280;32145;50.390;30.778;2023-05-25T06:13:21;100091.09;;;22.70;48.26
46448;BME280;32145;50.390;30.778;2023-05-25T06:16:05;100096.69;;;22.79;47.80
46448;BME280;32145;50.390;30.778;2023-05-25T06:18:59;100094.03;;;22.74;47.51
46448;BME280;32145;50.390;30.778;2023-05-25T06:21:43;100092.09;;;22.74;47.51
46448;BME280;32145;50.390;30.778;2023-05-25T06:24:27;100096.16;;;22.91;47.72
46448;BME280;32145;50.390;30.778;2023-05-25T06:27:21;100090.75;;;23.09;47.29
46448;BME280;32145;50.390;30.778;2023-05-25T06:30:17;100089.88;;;23.22;47.45
46448;BME280;32145;50.390;30.778;2023-05-25T06:33:07;100089.75;;;23.27;47.36
46448;BME280;32145;50.390;30.778;2023-05-25T06:35:51;100089.03;;;23.36;46.73
46448;BME280;32145;50.390;30.778;2023-05-25T06:38:48;100088.81;;;23.32;45.93
46448;BME280;32145;50.390;30.778;2023-05-25T06:41:44;100093.09;;;23.38;46.51
46448;BME280;32145;50.390;30.778;2023-05-25T06:44:28;100089.78;;;23.50;46.18
46448;BME280;32145;50.390;30.778;2023-05-25T06:47:24;100078.72;;;23.59;45.56
46448;BME280;32145;50.390;30.778;2023-05-25T06:50:20;100087.25;;;23.63;45.01
46448;BME280;32145;50.390;30.778;2023-05-25T06:53:17;100084.53;;;23.72;45.13
46448;BME280;32145;50.390;30.778;2023-05-25T06:56:00;100087.31;;;23.80;44.49
46448;BME280;32145;50.390;30.778;2023-05-25T06:58:55;100092.41;;;23.87;44.55
46448;BME280;32145;50.390;30.778;2023-05-25T07:01:39;100083.75;;;23.89;44.50
46448;BME280;32145;50.390;30.778;2023-05-25T07:04:36;100085.59;;;23.93;44.22
46448;BME280;32145;50.390;30.778;2023-05-25T07:07:21;100076.34;;;23.98;43.43
46448;BME280;32145;50.390;30.778;2023-05-25T07:10:16;100080.72;;;23.99;43.13
46448;BME280;32145;50.390;30.778;2023-05-25T07:12:59;100082.22;;;24.05;43.00
46448;BME280;32145;50.390;30.778;2023-05-25T07:15:43;100081.56;;;24.08;42.12
46448;BME280;32145;50.390;30.778;2023-05-25T07:18:27;100090.75;;;24.18;42.50
46448;BME280;32145;50.390;30.778;2023-05-25T07:21:23;100085.22;;;24.18;41.89
46448;BME280;32145;50.390;30.778;2023-05-25T07:24:19;100083.94;;;24.24;42.13
46448;BME280;32145;50.390;30.778;2023-05-25T07:27:04;100086.25;;;24.40;42.21
46448;BME280;32145;50.390;30.778;2023-05-25T07:29:58;100085.97;;;24.50;41.78
46448;BME280;32145;50.390;30.778;2023-05-25T07:32:43;100083.53;;;24.57;41.76
46448;BME280;32145;50.390;30.778;2023-05-25T07:35:27;100085.00;;;24.73;41.93
46448;BME280;32145;50.390;30.778;2023-05-25T07:38:18;100082.44;;;24.94;41.77
46448;BME280;32145;50.390;30.778;2023-05-25T07:41:02;100077.53;;;24.91;40.96
46448;BME280;32145;50.390;30.778;2023-05-25T07:43:46;100087.97;;;24.85;41.30
46448;BME280;32145;50.390;30.778;2023-05-25T07:46:41;100087.81;;;24.99;41.13
46448;BME280;32145;50.390;30.778;2023-05-25T07:49:35;100083.75;;;25.05;40.94
46448;BME280;32145;50.390;30.778;2023-05-25T07:52:30;100086.19;;;24.98;40.19
46448;BME280;32145;50.390;30.778;2023-05-25T07:55:26;100085.03;;;24.99;40.73
46448;BME280;32145;50.390;30.778;2023-05-25T07:58:20;100079.66;;;25.03;40.73
46448;BME280;32145;50.390;30.778;2023-05-25T08:01:04;100076.25;;;24.97;40.63
46448;BME280;32145;50.390;30.778;2023-05-25T08:03:58;100079.81;;;25.06;40.92
46448;BME280;32145;50.390;30.778;2023-05-25T08:06:53;100075.56;;;25.18;39.69
46448;BME280;32145;50.390;30.778;2023-05-25T08:09:37;100079.13;;;25.36;39.35
46448;BME280;32145;50.390;30.778;2023-05-25T08:12:22;100072.06;;;25.65;38.61
46448;BME280;32145;50.390;30.778;2023-05-25T08:15:16;100077.69;;;25.86;37.47
46448;BME280;32145;50.390;30.778;2023-05-25T08:18:11;100074.50;;;26.06;37.74
46448;BME280;32145;50.390;30.778;2023-05-25T08:20:54;100065.13;;;26.19;37.08
46448;BME280;32145;50.390;30.778;2023-05-25T08:23:51;100062.97;;;26.34;37.06
46448;BME280;32145;50.390;30.778;2023-05-25T08:26:35;100068.44;;;26.43;36.83
46448;BME280;32145;50.390;30.778;2023-05-25T08:29:30;100064.53;;;26.44;36.77
46448;BME280;32145;50.390;30.778;2023-05-25T08:32:24;100066.75;;;26.29;36.40
46448;BME280;32145;50.390;30.778;2023-05-25T08:35:09;100059.63;;;26.10;36.84
46448;BME280;32145;50.390;30.778;2023-05-25T08:37:53;100063.25;;;26.02;36.90
46448;BME280;32145;50.390;30.778;2023-05-25T08:41:01;100056.66;;;25.77;34.65
46448;BME280;32145;50.390;30.778;2023-05-25T08:43:56;100057.72;;;25.63;35.28
46448;BME280;32145;50.390;30.778;2023-05-25T08:46:41;100059.13;;;25.69;35.51
46448;BME280;32145;50.390;30.778;2023-05-25T08:49:33;100066.97;;;25.76;35.77
46448;BME280;32145;50.390;30.778;2023-05-25T08:52:21;100056.34;;;25.78;35.06
46448;BME280;32145;50.390;30.778;2023-05-25T08:55:07;100055.72;;;25.72;35.46
46448;BME280;32145;50.390;30.778;2023-05-25T08:58:06;100050.88;;;25.60;35.87
46448;BME280;32145;50.390;30.778;2023-05-25T09:01:06;100047.25;;;25.51;36.30
46448;BME280;32145;50.390;30.778;2023-05-25T09:04:02;100047.63;;;25.41;36.61
46448;BME280;32145;50.390;30.778;2023-05-25T09:06:57;100053.38;;;25.00;36.92
46448;BME280;32145;50.390;30.778;2023-05-25T09:09:51;100049.44;;;24.83;37.42
46448;BME280;32145;50.390;30.778;2023-05-25T09:12:37;100059.06;;;24.68;37.64
46448;BME280;32145;50.390;30.778;2023-05-25T09:15:21;100057.91;;;24.61;38.09
46448;BME280;32145;50.390;30.778;2023-05-25T09:18:05;100072.13;;;24.59;38.58
46448;BME280;32145;50.390;30.778;2023-05-25T09:20:50;100068.34;;;24.46;38.79
46448;BME280;32145;50.390;30.778;2023-05-25T09:23:45;100064.06;;;23.90;41.55
46448;BME280;32145;50.390;30.778;2023-05-25T09:26:40;100067.81;;;23.31;42.66
46448;BME280;32145;50.390;30.778;2023-05-25T09:29:36;100085.78;;;22.60;45.76
46448;BME280;32145;50.390;30.778;2023-05-25T09:32:21;100087.81;;;21.84;48.68
46448;BME280;32145;50.390;30.778;2023-05-25T09:35:15;100086.97;;;21.36;50.60
46448;BME280;32145;50.390;30.778;2023-05-25T09:38:12;100086.44;;;21.01;52.78
46448;BME280;32145;50.390;30.778;2023-05-25T09:40:56;100065.84;;;20.73;53.38
46448;BME280;32145;50.390;30.778;2023-05-25T09:43:51;100070.97;;;20.61;54.36
46448;BME280;32145;50.390;30.778;2023-05-25T09:46:35;100054.16;;;20.43;55.40
46448;BME280;32145;50.390;30.778;2023-05-25T09:49:19;100060.00;;;20.37;56.32
46448;BME280;32145;50.390;30.778;2023-05-25T09:52:11;100052.28;;;20.39;56.32
46448;BME280;32145;50.390;30.778;2023-05-25T09:54:56;100047.00;;;20.42;57.06
46448;BME280;32145;50.390;30.778;2023-05-25T09:57:41;100049.06;;;20.51;57.81
46448;BME280;32145;50.390;30.778;2023-05-25T10:00:26;100043.56;;;20.51;58.90
46448;BME280;32145;50.390;30.778;2023-05-25T10:03:22;100038.53;;;20.58;60.15
46448;BME280;32145;50.390;30.778;2023-05-25T10:06:06;100040.00;;;20.69;60.88
46448;BME280;32145;50.390;30.778;2023-05-25T10:09:01;100036.13;;;20.70;61.59
46448;BME280;32145;50.390;30.778;2023-05-25T10:11:50;100032.78;;;20.73;63.15
46448;BME280;32145;50.390;30.778;2023-05-25T10:14:36;100040.97;;;20.79;62.48
46448;BME280;32145;50.390;30.778;2023-05-25T10:17:31;100047.50;;;20.88;62.55
46448;BME280;32145;50.390;30.778;2023-05-25T10:20:19;100058.97;;;20.95;62.40
46448;BME280;32145;50.390;30.778;2023-05-25T10:23:08;100069.88;;;21.01;63.40
46448;BME280;32145;50.390;30.778;2023-05-25T10:25:56;100077.56;;;21.04;63.09
46448;BME280;32145;50.390;30.778;2023-05-25T10:28:44;100094.16;;;20.98;62.17
46448;BME280;32145;50.390;30.778;2023-05-25T10:31:31;100098.13;;;20.92;61.63
46448;BME280;32145;50.390;30.778;2023-05-25T10:34:17;100108.66;;;20.85;61.06
46448;BME280;32145;50.390;30.778;2023-05-25T10:37:03;100112.28;;;20.80;61.16
46448;BME280;32145;50.390;30.778;2023-05-25T10:39:48;100107.09;;;20.79;61.12
46448;BME280;32145;50.390;30.778;2023-05-25T10:42:40;100096.44;;;20.72;59.62
46448;BME280;32145;50.390;30.778;2023-05-25T10:45:36;100083.63;;;20.62;59.63
46448;BME280;32145;50.390;30.778;2023-05-25T10:48:20;100079.38;;;20.51;59.24
46448;BME280;32145;50.390;30.778;2023-05-25T10:51:18;100075.66;;;20.41;59.54
46448;BME280;32145;50.390;30.778;2023-05-25T10:54:02;100074.66;;;20.32;59.14
46448;BME280;32145;50.390;30.778;2023-05-25T10:57:08;100081.81;;;20.33;60.17
46448;BME280;32145;50.390;30.778;2023-05-25T11:00:06;100081.69;;;20.19;59.85
46448;BME280;32145;50.390;30.778;2023-05-25T11:02:52;100071.56;;;20.14;60.68
46448;BME280;32145;50.390;30.778;2023-05-25T11:05:49;100071.84;;;20.13;61.24
46448;BME280;32145;50.390;30.778;2023-05-25T11:08:47;100074.31;;;20.14;61.06
46448;BME280;32145;50.390;30.778;2023-05-25T11:11:59;100061.97;;;20.12;61.33
46448;BME280;32145;50.390;30.778;2023-05-25T11:15:13;100067.75;;;20.10;60.56
46448;BME280;32145;50.390;30.778;2023-05-25T11:18:13;100061.81;;;19.98;61.29
46448;BME280;32145;50.390;30.778;2023-05-25T11:21:11;100061.63;;;19.89;61.54
46448;BME280;32145;50.390;30.778;2023-05-25T11:24:03;100057.31;;;19.82;61.95
46448;BME280;32145;50.390;30.778;2023-05-25T11:26:57;100068.63;;;19.81;62.11
46448;BME280;32145;50.390;30.778;2023-05-25T11:29:48;100070.31;;;19.77;61.61
46448;BME280;32145;50.390;30.778;2023-05-25T11:32:33;100064.84;;;19.71;61.38
46448;BME280;32145;50.390;30.778;2023-05-25T11:35:18;100064.91;;;19.66;61.35
46448;BME280;32145;50.390;30.778;2023-05-25T11:38:12;100071.81;;;19.64;61.32
46448;BME280;32145;50.390;30.778;2023-05-25T11:40:56;100075.09;;;19.66;61.74
46448;BME280;32145;50.390;30.778;2023-05-25T11:43:40;100064.91;;;19.66;61.30
46448;BME280;32145;50.390;30.778;2023-05-25T11:46:34;100078.72;;;19.61;60.82
46448;BME280;32145;50.390;30.778;2023-05-25T11:49:29;100065.31;;;19.54;61.13
46448;BME280;32145;50.390;30.778;2023-05-25T11:52:15;100067.22;;;19.54;60.90
46448;BME280;32145;50.390;30.778;2023-05-25T11:54:59;100052.94;;;19.52;61.04
46448;BME280;32145;50.390;30.778;2023-05-25T11:57:43;100046.28;;;19.58;60.67
46448;BME280;32145;50.390;30.778;2023-05-25T12:00:39;100049.75;;;19.69;60.54
46448;BME280;32145;50.390;30.778;2023-05-25T12:03:30;100039.41;;;19.85;60.25
46448;BME280;32145;50.390;30.778;2023-05-25T12:06:24;100035.56;;;20.11;60.44
46448;BME280;32145;50.390;30.778;2023-05-25T12:09:18;100035.53;;;20.35;59.93
46448;BME280;32145;50.390;30.778;2023-05-25T12:12:03;100028.09;;;20.55;58.83
46448;BME280;32145;50.390;30.778;2023-05-25T12:14:47;100023.69;;;20.73;58.12
46448;BME280;32145;50.390;30.778;2023-05-25T12:17:32;100022.13;;;20.86;57.42
46448;BME280;32145;50.390;30.778;2023-05-25T12:20:17;100021.91;;;21.02;56.62
46448;BME280;32145;50.390;30.778;2023-05-25T12:23:02;100025.34;;;21.27;56.44
46448;BME280;32145;50.390;30.778;2023-05-25T12:26:08;100028.88;;;21.60;56.72
46448;BME280;32145;50.390;30.778;2023-05-25T12:29:03;100027.31;;;21.73;55.63
46448;BME280;32145;50.390;30.778;2023-05-25T12:31:47;100023.75;;;21.87;54.81
46448;BME280;32145;50.390;30.778;2023-05-25T12:34:44;100020.16;;;22.00;54.45
46448;BME280;32145;50.390;30.778;2023-05-25T12:37:42;100020.84;;;22.20;54.16
46448;BME280;32145;50.390;30.778;2023-05-25T12:40:32;100014.41;;;22.25;53.37
46448;BME280;32145;50.390;30.778;2023-05-25T12:43:17;100030.34;;;22.28;52.47
46448;BME280;32145;50.390;30.778;2023-05-25T12:46:22;100029.44;;;22.33;52.27
46448;BME280;32145;50.390;30.778;2023-05-25T12:49:27;100027.59;;;22.42;52.27
46448;BME280;32145;50.390;30.778;2023-05-25T12:52:30;100024.63;;;22.38;50.96
46448;BME280;32145;50.390;30.778;2023-05-25T12:55:26;100026.66;;;22.33;50.96
46448;BME280;32145;50.390;30.778;2023-05-25T12:58:26;100030.34;;;22.42;51.45
46448;BME280;32145;50.390;30.778;2023-05-25T13:01:22;100031.84;;;22.48;51.27
46448;BME280;32145;50.390;30.778;2023-05-25T13:04:06;100030.94;;;22.53;51.21
46448;BME280;32145;50.390;30.778;2023-05-25T13:07:01;100029.38;;;22.61;51.55
46448;BME280;32145;50.390;30.778;2023-05-25T13:09:45;100020.88;;;22.71;51.62
46448;BME280;32145;50.390;30.778;2023-05-25T13:12:29;100021.31;;;22.87;51.95
46448;BME280;32145;50.390;30.778;2023-05-25T13:15:27;100019.13;;;22.98;51.58
46448;BME280;32145;50.390;30.778;2023-05-25T13:18:11;100023.59;;;23.08;50.64
46448;BME280;32145;50.390;30.778;2023-05-25T13:20:55;100025.41;;;23.13;50.67
46448;BME280;32145;50.390;30.778;2023-05-25T13:23:52;100026.28;;;23.22;50.04
46448;BME280;32145;50.390;30.778;2023-05-25T13:26:36;100029.41;;;23.29;49.85
46448;BME280;32145;50.390;30.778;2023-05-25T13:29:30;100031.06;;;23.30;48.86
46448;BME280;32145;50.390;30.778;2023-05-25T13:32:25;100039.41;;;23.39;48.14
46448;BME280;32145;50.390;30.778;2023-05-25T13:35:09;100041.69;;;23.37;47.90
46448;BME280;32145;50.390;30.778;2023-05-25T13:38:04;100045.97;;;23.43;47.89
46448;BME280;32145;50.390;30.778;2023-05-25T13:41:00;100038.97;;;23.46;47.85
46448;BME280;32145;50.390;30.778;2023-05-25T13:43:45;100041.59;;;23.51;48.30
46448;BME280;32145;50.390;30.778;2023-05-25T13:46:39;100022.75;;;23.53;47.71
46448;BME280;32145;50.390;30.778;2023-05-25T13:49:24;100031.00;;;23.45;47.10
46448;BME280;32145;50.390;30.778;2023-05-25T13:52:08;100022.63;;;23.36;47.07
46448;BME280;32145;50.390;30.778;2023-05-25T13:55:05;100030.53;;;23.28;47.82
46448;BME280;32145;50.390;30.778;2023-05-25T13:58:01;100027.91;;;23.23;47.74
46448;BME280;32145;50.390;30.778;2023-05-25T14:00:57;100022.06;;;23.25;48.58
46448;BME280;32145;50.390;30.778;2023-05-25T14:03:54;100019.63;;;23.23;48.19
46448;BME280;32145;50.390;30.778;2023-05-25T14:06:39;100026.22;;;23.13;47.83
46448;BME280;32145;50.390;30.778;2023-05-25T14:09:33;100023.00;;;22.97;47.87
46448;BME280;32145;50.390;30.778;2023-05-25T14:12:17;100028.81;;;22.87;48.47
46448;BME280;32145;50.390;30.778;2023-05-25T14:15:12;100024.13;;;22.73;48.18
46448;BME280;32145;50.390;30.778;2023-05-25T14:17:56;100026.44;;;22.57;48.41
46448;BME280;32145;50.390;30.778;2023-05-25T14:20:39;100017.66;;;22.41;48.89
46448;BME280;32145;50.390;30.778;2023-05-25T14:23:31;100016.88;;;22.26;49.06
46448;BME280;32145;50.390;30.778;2023-05-25T14:26:26;100025.38;;;22.16;49.17
46448;BME280;32145;50.390;30.778;2023-05-25T14:29:10;100023.94;;;22.05;49.37
46448;BME280;32145;50.390;30.778;2023-05-25T14:31:53;100033.47;;;21.98;49.79
46448;BME280;32145;50.390;30.778;2023-05-25T14:34:50;100041.03;;;21.93;50.31
46448;BME280;32145;50.390;30.778;2023-05-25T14:37:46;100034.88;;;21.82;51.12
46448;BME280;32145;50.390;30.778;2023-05-25T14:40:42;100024.25;;;21.75;51.76
46448;BME280;32145;50.390;30.778;2023-05-25T14:43:26;100016.84;;;21.70;52.14
46448;BME280;32145;50.390;30.778;2023-05-25T14:46:10;100014.53;;;21.78;52.30
46448;BME280;32145;50.390;30.778;2023-05-25T14:49:00;100011.38;;;21.84;52.28